Time;durP1;ratioP1;P1;durP2;ratioP2;P2;SDS_P1;SDS_P2;PMS_P1;PMS_P2;Temp;Humidity;BMP_temperature;BMP_pressure;BME280_temperature;BME280_humidity;BME280_pressure;Samples;Min_cycle;Max_cycle;Signal;HPM_P1;HPM_P2
2024/02/16 00:02:07;;;;;;;5.38;2.40;;;;;;;9.02;100.00;69388.88;5071734;28;20052;-63
2024/02/16 00:04:38;;;;;;;8.38;2.97;;;;;;;8.99;100.00;69391.16;5071986;28;20048;-62
2024/02/16 00:07:06;;;;;;;6.63;2.70;;;;;;;8.95;100.00;69384.47;5072192;28;20052;-62
2024/02/16 00:09:34;;;;;;;5.13;2.50;;;;;;;8.92;100.00;69383.00;5073189;28;20127;-62
2024/02/16 00:12:05;;;;;;;5.68;2.17;;;;;;;8.89;100.00;69369.69;5072250;28;20058;-62
2024/02/16 00:14:33;;;;;;;6.35;2.38;;;;;;;8.86;100.00;69374.00;5071960;28;20130;-62
2024/02/16 00:17:01;;;;;;;7.95;2.85;;;;;;;8.85;100.00;69375.44;5071431;28;20452;-61
2024/02/16 00:19:32;;;;;;;8.15;2.53;;;;;;;8.82;100.00;69374.53;5071890;28;20091;-62
2024/02/16 00:22:01;;;;;;;6.28;2.40;;;;;;;8.79;100.00;69368.41;5072015;28;20045;-62
2024/02/16 00:24:31;;;;;;;7.28;2.63;;;;;;;8.77;100.00;69366.69;5071362;28;20076;-62
2024/02/16 00:27:01;;;;;;;8.45;2.65;;;;;;;8.75;100.00;69361.16;5071497;28;20056;-62
2024/02/16 00:29:31;;;;;;;9.27;2.92;;;;;;;8.79;100.00;69369.03;5071804;28;20055;-61
2024/02/16 00:32:00;;;;;;;4.88;2.53;;;;;;;8.80;100.00;69372.78;5071500;28;20139;-62
2024/02/16 00:34:28;;;;;;;5.32;2.80;;;;;;;8.79;100.00;69369.03;5072065;28;20126;-62
2024/02/16 00:36:56;;;;;;;7.50;3.20;;;;;;;8.86;100.00;69376.00;5073184;28;20050;-63
2024/02/16 00:39:24;;;;;;;6.88;2.78;;;;;;;8.83;100.00;69373.09;5073482;28;20551;-62
2024/02/16 00:41:53;;;;;;;6.85;2.50;;;;;;;8.80;100.00;69369.59;5073584;28;20482;-63
2024/02/16 00:44:21;;;;;;;7.80;3.10;;;;;;;8.79;100.00;69363.81;5072410;28;20048;-61
2024/02/16 00:46:51;;;;;;;6.57;2.50;;;;;;;8.73;100.00;69361.44;5071583;28;20049;-62
2024/02/16 00:49:19;;;;;;;8.07;2.80;;;;;;;8.72;100.00;69360.28;5072783;28;20044;-61
2024/02/16 00:51:48;;;;;;;6.88;2.58;;;;;;;8.67;100.00;69354.44;5073541;28;20483;-61
2024/02/16 00:54:16;;;;;;;6.22;2.20;;;;;;;8.61;100.00;69353.22;5073355;28;20055;-61
2024/02/16 00:56:44;;;;;;;5.72;2.58;;;;;;;8.58;100.00;69341.94;5072705;28;20044;-61
2024/02/16 00:59:12;;;;;;;7.50;3.30;;;;;;;8.55;100.00;69341.03;5071546;28;20098;-61
2024/02/16 01:01:40;;;;;;;9.85;2.75;;;;;;;8.48;100.00;69333.47;5071338;28;20044;-61
2024/02/16 01:04:10;;;;;;;8.43;2.70;;;;;;;8.45;100.00;69329.97;5069916;28;20052;-61
2024/02/16 01:06:38;;;;;;;6.63;2.47;;;;;;;8.41;100.00;69327.88;5071015;28;20201;-61
2024/02/16 01:09:06;;;;;;;5.07;2.28;;;;;;;8.38;100.00;69319.78;5071734;28;20060;-61
2024/02/16 01:11:34;;;;;;;5.47;2.50;;;;;;;8.33;100.00;69315.97;5072572;28;20538;-61
2024/02/16 01:14:02;;;;;;;6.45;2.67;;;;;;;8.29;100.00;69314.50;5071464;28;20129;-61
2024/02/16 01:16:30;;;;;;;8.10;2.65;;;;;;;8.26;100.00;69305.78;5071234;28;20483;-61
2024/02/16 01:18:59;;;;;;;7.03;2.70;;;;;;;8.24;100.00;69308.66;5072775;28;20125;-61
2024/02/16 01:21:28;;;;;;;9.45;2.50;;;;;;;8.21;100.00;69300.56;5072454;28;20491;-61
2024/02/16 01:23:59;;;;;;;6.88;2.70;;;;;;;8.20;100.00;69299.38;5071091;28;20565;-61
2024/02/16 01:26:27;;;;;;;6.97;2.83;;;;;;;8.16;100.00;69297.31;5070565;28;20090;-60
2024/02/16 01:28:57;;;;;;;5.38;2.60;;;;;;;8.14;100.00;69295.00;5070827;28;20059;-62
2024/02/16 01:31:26;;;;;;;6.63;2.65;;;;;;;8.11;100.00;69289.50;5070949;28;20575;-61
2024/02/16 01:33:54;;;;;;;7.00;2.80;;;;;;;8.10;100.00;69290.91;5070832;28;20506;-61
2024/02/16 01:36:22;;;;;;;6.97;2.83;;;;;;;8.09;100.00;69289.75;5070957;28;20098;-61
2024/02/16 01:38:52;;;;;;;8.38;2.75;;;;;;;8.08;100.00;69285.97;5070507;28;20051;-61
2024/02/16 01:41:20;;;;;;;7.18;2.63;;;;;;;8.07;100.00;69287.44;5069585;28;20051;-60
2024/02/16 01:43:48;;;;;;;6.32;2.60;;;;;;;8.06;100.00;69288.28;5071045;28;20511;-61
2024/02/16 01:46:16;;;;;;;8.00;2.60;;;;;;;8.02;100.00;69281.59;5070988;28;20468;-61
2024/02/16 01:48:44;;;;;;;9.68;2.95;;;;;;;8.00;100.00;69278.69;5072772;28;20041;-61
2024/02/16 01:51:14;;;;;;;7.68;3.40;;;;;;;7.99;100.00;69274.91;5074814;28;20136;-60
2024/02/16 01:53:42;;;;;;;4.43;2.30;;;;;;;7.97;100.00;69275.19;5075797;28;20051;-61
2024/02/16 01:56:12;;;;;;;6.63;2.85;;;;;;;7.93;100.00;69271.72;5074818;28;20114;-61
2024/02/16 01:58:40;;;;;;;6.72;2.50;;;;;;;7.90;100.00;69268.19;5073382;28;20052;-61
2024/02/16 02:01:08;;;;;;;7.93;2.75;;;;;;;7.86;100.00;69268.75;5075898;28;20074;-61
2024/02/16 02:03:36;;;;;;;6.57;2.90;;;;;;;7.85;100.00;69259.78;5074368;28;20056;-61
2024/02/16 02:06:05;;;;;;;6.30;2.72;;;;;;;7.84;100.00;69260.63;5074194;28;20377;-61
2024/02/16 02:08:34;;;;;;;6.25;2.50;;;;;;;7.83;100.00;69262.09;5076229;28;20037;-60
2024/02/16 02:11:02;;;;;;;5.90;2.78;;;;;;;7.82;100.00;69258.88;5072886;28;20709;-60
2024/02/16 02:13:32;;;;;;;7.10;2.67;;;;;;;7.81;100.00;69255.13;5074906;28;20060;-61
2024/02/16 02:16:01;;;;;;;7.30;2.92;;;;;;;7.79;100.00;69255.41;5075250;28;20522;-62
2024/02/16 02:18:29;;;;;;;7.20;2.58;;;;;;;7.77;100.00;69253.06;5074387;28;20052;-62
2024/02/16 02:20:58;;;;;;;7.85;2.70;;;;;;;7.75;100.00;69248.16;5073840;28;20055;-60
2024/02/16 02:23:28;;;;;;;7.10;3.00;;;;;;;7.72;100.00;69244.66;5073008;28;20408;-60
2024/02/16 02:25:56;;;;;;;9.25;3.08;;;;;;;7.67;100.00;69242.00;5072204;28;20041;-61
2024/02/16 02:28:24;;;;;;;8.55;2.85;;;;;;;7.65;100.00;69237.09;5074039;28;20040;-60
2024/02/16 02:30:53;;;;;;;7.05;3.03;;;;;;;7.63;100.00;69234.75;5074297;28;20395;-61
2024/02/16 02:33:21;;;;;;;8.45;3.28;;;;;;;7.63;100.00;69237.34;5075334;28;20047;-61
2024/02/16 02:35:49;;;;;;;8.20;3.58;;;;;;;7.61;100.00;69229.84;5075839;28;20479;-60
2024/02/16 02:38:18;;;;;;;4.25;2.45;;;;;;;7.57;100.00;69232.97;5073954;28;20047;-60
2024/02/16 02:40:47;;;;;;;6.00;2.70;;;;;;;7.55;100.00;69233.81;5073886;28;20407;-60
2024/02/16 02:43:15;;;;;;;7.65;2.90;;;;;;;7.54;100.00;69222.25;5075147;28;20537;-60
2024/02/16 02:45:44;;;;;;;7.93;2.90;;;;;;;7.56;100.00;69229.78;5073690;28;20037;-60
2024/02/16 02:48:12;;;;;;;5.93;3.00;;;;;;;7.65;100.00;69237.09;5073295;28;20451;-60
2024/02/16 02:50:40;;;;;;;7.13;3.22;;;;;;;7.68;100.00;69242.59;5073578;28;20118;-62
2024/02/16 02:53:08;;;;;;;7.90;3.42;;;;;;;7.67;100.00;69238.84;5074027;28;20519;-60
2024/02/16 02:55:36;;;;;;;8.18;3.75;;;;;;;7.66;100.00;69240.25;5073327;28;20071;-60
2024/02/16 02:58:06;;;;;;;7.28;3.10;;;;;;;7.71;100.00;69243.50;5074250;28;20044;-61
2024/02/16 03:00:35;;;;;;;8.02;3.05;;;;;;;7.70;100.00;69244.91;5074173;28;20052;-60
2024/02/16 03:03:03;;;;;;;6.82;2.85;;;;;;;7.67;100.00;69244.59;5074364;28;20102;-52
2024/02/16 03:05:32;;;;;;;5.63;3.00;;;;;;;7.66;100.00;69240.25;5073287;28;20072;-53
2024/02/16 03:08:01;;;;;;;8.93;3.63;;;;;;;7.66;100.00;69240.84;5071834;28;20510;-52
2024/02/16 03:10:34;;;;;;;5.82;2.88;;;;;;;7.75;100.00;69245.56;5070449;28;20068;-51
2024/02/16 03:13:02;;;;;;;7.72;2.67;;;;;;;7.86;100.00;69260.94;5071649;28;20090;-51
2024/02/16 03:15:32;;;;;;;8.75;2.88;;;;;;;7.85;100.00;69264.97;5070747;28;20783;-51
2024/02/16 03:18:00;;;;;;;7.22;2.60;;;;;;;7.87;100.00;69269.34;5071435;28;20051;-50
2024/02/16 03:20:29;;;;;;;6.43;2.65;;;;;;;8.12;100.00;69292.66;5070183;28;20448;-50
2024/02/16 03:22:57;;;;;;;7.00;3.00;;;;;;;8.18;100.00;69299.66;5071330;28;20048;-50
2024/02/16 03:25:25;;;;;;;6.72;2.92;;;;;;;8.28;100.00;69311.31;5069818;28;20053;-52
2024/02/16 03:27:54;;;;;;;7.57;2.67;;;;;;;8.34;100.00;69315.09;5071280;28;20534;-50
2024/02/16 03:30:22;;;;;;;8.50;3.30;;;;;;;8.53;100.00;69336.69;5071026;28;20055;-50
2024/02/16 03:32:55;;;;;;;5.45;2.33;;;;;;;8.63;100.00;69345.75;5070884;28;20044;-53
2024/02/16 03:35:23;;;;;;;8.63;3.00;;;;;;;8.81;100.00;69368.16;5070374;28;20484;-51
2024/02/16 03:37:51;;;;;;;5.88;2.60;;;;;;;8.78;100.00;69365.25;5070870;28;20068;-52
2024/02/16 03:40:19;;;;;;;7.55;3.00;;;;;;;8.85;100.00;69372.81;5069902;28;20504;-53
2024/02/16 03:42:47;;;;;;;7.93;3.00;;;;;;;8.93;100.00;69378.94;5071192;28;20036;-51
2024/02/16 03:45:16;;;;;;;7.32;2.70;;;;;;;9.07;100.00;69395.28;5070827;28;20068;-52
2024/02/16 03:47:44;;;;;;;6.68;2.83;;;;;;;9.13;100.00;69406.88;5071339;28;20048;-52
2024/02/16 03:50:14;;;;;;;6.65;2.90;;;;;;;9.18;100.00;69412.16;5069052;28;20407;-48
2024/02/16 03:52:43;;;;;;;7.78;2.63;;;;;;;9.32;100.00;69423.25;5072457;28;20496;-48
2024/02/16 03:55:11;;;;;;;5.57;2.58;;;;;;;9.31;100.00;69427.28;5073335;28;20071;-52
2024/02/16 03:57:41;;;;;;;7.70;2.70;;;;;;;9.28;100.00;69421.78;5070142;28;20087;-50
2024/02/16 04:00:12;;;;;;;6.38;2.80;;;;;;;9.40;100.00;69437.22;5070547;28;20940;-48
2024/02/16 04:02:40;;;;;;;6.85;2.60;;;;;;;9.47;100.00;69445.38;5070528;28;20037;-51
2024/02/16 04:05:09;;;;;;;7.00;2.75;;;;;;;9.50;100.00;69448.84;5070037;28;20055;-51
2024/02/16 04:07:38;;;;;;;4.97;2.40;;;;;;;9.52;100.00;69451.19;5070289;28;20049;-50
2024/02/16 04:10:07;;;;;;;8.00;3.50;;;;;;;9.48;100.00;69447.09;5073700;28;20044;-52
2024/02/16 04:12:36;;;;;;;8.75;2.70;;;;;;;9.45;100.00;69446.22;5073297;28;20694;-48
2024/02/16 04:15:05;;;;;;;7.85;2.65;;;;;;;9.50;100.00;69448.84;5071612;28;20348;-52
2024/02/16 04:17:33;;;;;;;8.15;2.78;;;;;;;9.47;100.00;69445.38;5069825;28;20044;-49
2024/02/16 04:20:02;;;;;;;8.02;3.00;;;;;;;9.52;100.00;69451.19;5069772;28;20135;-49
2024/02/16 04:22:37;;;;;;;6.85;2.70;;;;;;;9.57;100.00;69454.44;5069968;28;20044;-49
2024/02/16 04:25:07;;;;;;;7.00;2.70;;;;;;;9.54;100.00;69453.53;5068613;28;20040;-49
2024/02/16 04:27:34;;;;;;;5.05;2.47;;;;;;;9.48;100.00;69443.94;5069749;28;20122;-49
2024/02/16 04:30:02;;;;;;;7.68;2.67;;;;;;;9.52;100.00;69450.63;5069699;28;20048;-50
2024/02/16 04:32:31;;;;;;;6.55;2.55;;;;;;;9.52;100.00;69453.22;5069883;28;20060;-53
2024/02/16 04:35:00;;;;;;;7.43;2.75;;;;;;;9.46;100.00;69446.78;5069180;28;20156;-53
2024/02/16 04:37:28;;;;;;;6.18;2.85;;;;;;;9.49;100.00;69447.72;5073191;28;20094;-49
2024/02/16 04:39:56;;;;;;;8.95;2.70;;;;;;;9.44;100.00;69441.88;5073464;28;20534;-61
2024/02/16 04:42:26;;;;;;;7.45;3.20;;;;;;;9.37;100.00;69434.28;5073210;28;20503;-60
2024/02/16 04:44:54;;;;;;;5.82;2.45;;;;;;;9.42;100.00;69440.13;5071875;28;20380;-61
2024/02/16 04:47:23;;;;;;;9.05;2.70;;;;;;;9.37;100.00;69436.91;5070314;28;20098;-62
2024/02/16 04:49:51;;;;;;;5.88;2.65;;;;;;;9.36;100.00;69433.13;5071505;28;20070;-61
2024/02/16 04:52:19;;;;;;;6.63;2.90;;;;;;;9.32;100.00;69427.88;5072853;28;20052;-62
2024/02/16 04:54:47;;;;;;;5.40;2.60;;;;;;;9.37;100.00;69436.31;5071488;28;20127;-61
2024/02/16 04:57:15;;;;;;;8.57;2.50;;;;;;;9.31;100.00;69424.69;5070915;28;20045;-60
2024/02/16 04:59:45;;;;;;;5.75;2.80;;;;;;;9.32;100.00;69427.88;5069932;28;20053;-60
2024/02/16 05:02:13;;;;;;;7.45;2.78;;;;;;;9.35;100.00;69431.94;5070985;28;20040;-61
2024/02/16 05:04:41;;;;;;;6.28;2.75;;;;;;;9.41;100.00;69438.38;5070985;28;20575;-60
2024/02/16 05:07:10;;;;;;;5.00;2.53;;;;;;;9.39;100.00;69434.00;5071452;28;20495;-60
2024/02/16 05:09:39;;;;;;;6.45;2.78;;;;;;;9.36;100.00;69427.91;5072987;28;20119;-60
2024/02/16 05:12:09;;;;;;;6.60;2.63;;;;;;;9.34;100.00;69430.19;5071312;28;20101;-60
2024/02/16 05:14:37;;;;;;;8.15;3.53;;;;;;;9.30;100.00;69429.31;5071480;28;20040;-60
2024/02/16 05:17:07;;;;;;;7.68;2.90;;;;;;;9.27;100.00;69425.22;5071185;28;20052;-60
2024/02/16 05:19:36;;;;;;;5.35;2.53;;;;;;;9.28;100.00;69424.38;5071332;28;20036;-61
2024/02/16 05:22:05;;;;;;;6.45;2.97;;;;;;;9.29;100.00;69428.16;5070225;28;20048;-60
2024/02/16 05:24:36;;;;;;;7.00;2.75;;;;;;;9.32;100.00;69425.28;5074376;28;20040;-60
2024/02/16 05:27:04;;;;;;;6.45;2.60;;;;;;;9.27;100.00;69423.22;5075473;28;20056;-60
2024/02/16 05:29:33;;;;;;;5.53;2.60;;;;;;;9.24;100.00;69424.94;5075437;28;20384;-60
2024/02/16 05:32:01;;;;;;;8.02;3.13;;;;;;;9.20;100.00;69414.47;5076861;28;20549;-60
2024/02/16 05:34:37;;;;;;;7.47;2.95;;;;;;;9.22;100.00;69417.38;5076111;28;20063;-60
2024/02/16 05:37:07;;;;;;;7.93;2.97;;;;;;;9.21;100.00;69413.59;5075187;28;20051;-61
2024/02/16 05:39:53;;;;;;;8.35;2.78;;;;;;;9.21;100.00;69416.22;5074747;28;20052;-60
2024/02/16 05:42:22;;;;;;;9.38;3.15;;;;;;;9.22;100.00;69414.22;5073903;28;20048;-60
2024/02/16 05:44:51;;;;;;;6.68;2.97;;;;;;;9.17;100.00;69410.97;5075295;28;20043;-61
2024/02/16 05:47:20;;;;;;;5.75;2.80;;;;;;;9.16;100.00;69409.81;5075089;28;20063;-61
2024/02/16 05:49:50;;;;;;;5.70;2.70;;;;;;;9.10;100.00;69401.38;5076315;28;20495;-61
2024/02/16 05:52:18;;;;;;;6.40;3.03;;;;;;;9.05;100.00;69400.75;5074942;28;20052;-61
2024/02/16 05:54:47;;;;;;;7.43;2.78;;;;;;;9.05;100.00;69398.16;5075270;28;20538;-61
2024/02/16 05:57:18;;;;;;;6.13;3.05;;;;;;;9.04;100.00;69396.38;5074677;28;20504;-60
2024/02/16 05:59:46;;;;;;;5.38;2.88;;;;;;;9.02;100.00;69394.06;5075004;28;20056;-61
2024/02/16 06:02:17;;;;;;;5.78;2.60;;;;;;;9.02;100.00;69394.06;5074713;28;20541;-61
2024/02/16 06:04:45;;;;;;;7.00;2.90;;;;;;;9.11;100.00;69401.97;5075015;28;20127;-59
2024/02/16 06:07:15;;;;;;;6.43;3.13;;;;;;;9.15;100.00;69406.63;5075876;28;20123;-60
2024/02/16 06:09:43;;;;;;;7.78;3.28;;;;;;;9.17;100.00;69411.56;5074273;28;20072;-61
2024/02/16 06:12:12;;;;;;;6.68;2.92;;;;;;;9.18;100.00;69415.31;5073125;28;20056;-61
2024/02/16 06:14:41;;;;;;;6.93;3.10;;;;;;;9.13;100.00;69401.69;5073438;28;20055;-61
2024/02/16 06:17:09;;;;;;;8.48;3.05;;;;;;;9.08;100.00;69399.03;5074506;28;20086;-61
2024/02/16 06:19:41;;;;;;;8.13;3.30;;;;;;;9.06;100.00;69398.72;5074082;28;20063;-61
2024/02/16 06:22:10;;;;;;;7.30;3.13;;;;;;;9.07;100.00;69402.50;5073700;28;20055;-60
2024/02/16 06:24:39;;;;;;;7.68;3.08;;;;;;;9.11;100.00;69407.75;5072353;28;20044;-61
2024/02/16 06:27:08;;;;;;;8.35;3.25;;;;;;;9.19;100.00;69413.88;5073369;28;20768;-61
2024/02/16 06:29:37;;;;;;;5.82;2.92;;;;;;;9.23;100.00;69415.94;5072290;28;20055;-61
2024/02/16 06:32:06;;;;;;;6.75;3.05;;;;;;;9.34;100.00;69427.59;5073293;28;20044;-59
2024/02/16 06:34:34;;;;;;;7.95;3.65;;;;;;;9.32;100.00;69427.88;5073353;28;20070;-61
2024/02/16 06:37:03;;;;;;;7.43;2.97;;;;;;;9.41;100.00;69433.75;5073225;28;20044;-61
2024/02/16 06:39:31;;;;;;;9.00;3.03;;;;;;;9.49;100.00;69447.72;5075530;28;20395;-60
2024/02/16 06:42:01;;;;;;;8.57;3.38;;;;;;;9.59;100.00;69458.78;5074421;28;20046;-60
2024/02/16 06:44:30;;;;;;;7.22;3.20;;;;;;;9.60;100.00;69457.91;5075335;28;20072;-60
2024/02/16 06:46:58;;;;;;;6.65;2.92;;;;;;;9.59;100.00;69456.75;5073803;28;20090;-60
2024/02/16 06:49:26;;;;;;;9.05;3.03;;;;;;;9.55;100.00;69454.69;5075043;28;20373;-61
2024/02/16 06:51:55;;;;;;;6.75;3.13;;;;;;;9.60;100.00;69463.13;5075411;28;20123;-61
2024/02/16 06:54:24;;;;;;;5.72;3.10;;;;;;;9.68;100.00;69469.28;5075114;28;20041;-61
2024/02/16 06:56:53;;;;;;;8.90;3.45;;;;;;;9.70;100.00;69471.03;5073139;28;20063;-61
2024/02/16 06:59:22;;;;;;;7.90;3.60;;;;;;;9.77;100.00;69476.59;5074249;28;20403;-61
2024/02/16 07:01:51;;;;;;;7.93;3.17;;;;;;;9.80;100.00;69483.28;5075480;28;20045;-61
2024/02/16 07:04:19;;;;;;;8.13;3.47;;;;;;;9.81;100.00;69483.84;5074248;28;20094;-61
2024/02/16 07:06:47;;;;;;;7.78;3.58;;;;;;;9.88;100.00;69497.22;5073790;28;20056;-61
2024/02/16 07:09:15;;;;;;;7.13;3.53;;;;;;;9.89;100.00;69492.59;5073676;28;20041;-62
2024/02/16 07:11:46;;;;;;;8.82;3.38;;;;;;;9.96;100.00;69498.16;5073716;28;20047;-62
2024/02/16 07:14:18;;;;;;;6.50;3.00;;;;;;;9.94;100.00;69499.03;5074230;28;20128;-61
2024/02/16 07:16:47;;;;;;;7.53;3.08;;;;;;;9.94;100.00;69501.63;5074135;28;20044;-62
2024/02/16 07:19:17;;;;;;;7.55;3.35;;;;;;;9.95;100.00;69499.59;5073544;28;20106;-62
2024/02/16 07:21:48;;;;;;;8.48;3.67;;;;;;;10.01;100.00;69506.59;5073693;28;20083;-61
2024/02/16 07:24:17;;;;;;;8.75;3.88;;;;;;;10.09;100.00;69515.34;5073247;28;20121;-61
2024/02/16 07:26:47;;;;;;;9.07;3.38;;;;;;;10.07;100.00;69513.59;5073306;28;20036;-62
2024/02/16 07:29:16;;;;;;;9.10;3.47;;;;;;;10.10;100.00;69513.91;5074392;28;20047;-62
2024/02/16 07:31:45;;;;;;;9.18;3.47;;;;;;;10.19;100.00;69523.84;5073518;28;20048;-60
2024/02/16 07:34:14;;;;;;;6.65;3.13;;;;;;;10.21;100.00;69529.34;5073460;28;20048;-62
2024/02/16 07:36:43;;;;;;;7.78;3.38;;;;;;;10.26;100.00;69532.00;5074004;28;20495;-61
2024/02/16 07:39:11;;;;;;;8.82;3.55;;;;;;;10.31;100.00;69538.41;5072844;28;20047;-62
2024/02/16 07:41:40;;;;;;;8.38;3.25;;;;;;;10.34;100.00;69543.94;5073062;28;20037;-61
2024/02/16 07:44:11;;;;;;;7.18;3.00;;;;;;;10.39;100.00;69544.59;5073867;28;20041;-62
2024/02/16 07:46:41;;;;;;;7.88;3.45;;;;;;;10.52;100.00;69559.16;5072549;28;20048;-61
2024/02/16 07:49:10;;;;;;;8.45;3.45;;;;;;;10.58;100.00;69571.38;5072026;28;20052;-61
2024/02/16 07:51:41;;;;;;;8.05;3.97;;;;;;;10.60;100.00;69573.72;5074297;28;20040;-62
2024/02/16 07:54:09;;;;;;;9.57;3.53;;;;;;;10.64;100.00;69578.38;5074393;28;20040;-61
2024/02/16 07:56:37;;;;;;;6.65;3.08;;;;;;;10.67;100.00;69578.69;5072887;28;20102;-61
2024/02/16 07:59:06;;;;;;;9.73;3.80;;;;;;;10.72;100.00;69589.75;5072433;28;20542;-62
2024/02/16 08:01:34;;;;;;;6.85;3.38;;;;;;;10.76;100.00;69589.19;5074293;28;20083;-61
2024/02/16 08:04:02;;;;;;;9.80;3.63;;;;;;;10.80;100.00;69593.88;5072740;28;20068;-62
2024/02/16 08:06:33;;;;;;;9.02;3.85;;;;;;;10.85;100.00;69596.50;5073146;28;20048;-62
2024/02/16 08:09:04;;;;;;;7.45;3.58;;;;;;;10.86;100.00;69597.69;5072206;28;20127;-62
2024/02/16 08:11:32;;;;;;;7.95;3.78;;;;;;;10.96;100.00;69611.97;5072930;28;20456;-61
2024/02/16 08:14:01;;;;;;;8.30;3.38;;;;;;;10.97;100.00;69615.72;5073385;28;20500;-62
2024/02/16 08:16:29;;;;;;;8.13;3.63;;;;;;;10.96;100.00;69611.97;5071244;28;20049;-62
2024/02/16 08:18:57;;;;;;;8.23;3.72;;;;;;;11.07;100.00;69621.63;5072008;28;20036;-62
2024/02/16 08:21:28;;;;;;;8.90;3.60;;;;;;;11.10;100.00;69624.53;5071723;28;20066;-62
2024/02/16 08:23:56;;;;;;;9.90;3.97;;;;;;;11.13;100.00;69630.66;5073257;28;20539;-62
2024/02/16 08:26:26;;;;;;;7.82;3.63;;;;;;;11.15;100.00;69632.97;5069551;28;20097;-62
2024/02/16 08:28:54;;;;;;;9.00;3.85;;;;;;;11.16;100.00;69628.91;5071234;28;20125;-62
2024/02/16 08:31:22;;;;;;;6.53;3.83;;;;;;;11.18;100.00;69636.50;5071786;28;20553;-62
2024/02/16 08:33:53;;;;;;;10.73;3.70;;;;;;;11.20;100.00;69638.25;5071212;28;20060;-62
2024/02/16 08:36:27;;;;;;;8.88;3.67;;;;;;;11.24;100.00;69646.09;5071159;28;20055;-62
2024/02/16 08:38:56;;;;;;;5.75;3.28;;;;;;;11.30;100.00;69650.50;5071291;28;20117;-62
2024/02/16 08:41:24;;;;;;;9.88;3.83;;;;;;;11.32;100.00;69652.25;5071192;28;20043;-62
2024/02/16 08:43:54;;;;;;;8.65;4.13;;;;;;;11.35;100.00;69655.16;5072031;28;20044;-62
2024/02/16 08:46:23;;;;;;;8.30;3.83;;;;;;;11.39;100.00;69657.22;5070831;28;20431;-62
2024/02/16 08:48:51;;;;;;;8.68;3.65;;;;;;;11.44;100.00;69665.69;5072676;28;20476;-62
2024/02/16 08:51:19;;;;;;;8.18;3.28;;;;;;;11.43;100.00;69661.91;5070353;28;20049;-61
2024/02/16 08:53:47;;;;;;;11.55;4.32;;;;;;;11.47;100.00;69672.38;5070569;28;20048;-61
2024/02/16 08:56:16;;;;;;;8.05;3.83;;;;;;;11.48;100.00;69670.94;5069278;28;20500;-61
2024/02/16 08:58:44;;;;;;;10.73;4.28;;;;;;;11.53;100.00;69681.41;5070330;28;20063;-61
2024/02/16 09:01:15;;;;;;;8.48;3.85;;;;;;;11.56;100.00;69674.47;5070917;28;20036;-61
2024/02/16 09:03:44;;;;;;;8.80;4.10;;;;;;;11.60;100.00;69684.38;5072679;28;20071;-62
2024/02/16 09:06:12;;;;;;;10.02;3.92;;;;;;;11.63;100.00;69690.47;5068482;28;20055;-62
2024/02/16 09:08:41;;;;;;;8.00;3.92;;;;;;;11.66;100.00;69693.41;5068774;28;20083;-62
2024/02/16 09:11:09;;;;;;;7.68;4.07;;;;;;;11.66;100.00;69688.75;5069461;28;20040;-62
2024/02/16 09:13:37;;;;;;;8.10;4.13;;;;;;;11.71;100.00;69701.88;5071792;28;20040;-62
2024/02/16 09:16:08;;;;;;;7.30;3.65;;;;;;;11.73;100.00;69698.97;5072749;28;20068;-61
2024/02/16 09:18:38;;;;;;;9.65;4.15;;;;;;;11.76;100.00;69699.84;5072384;28;20048;-61
2024/02/16 09:21:07;;;;;;;8.82;4.00;;;;;;;11.80;100.00;69704.50;5069813;28;20124;-62
2024/02/16 09:23:36;;;;;;;9.50;3.72;;;;;;;11.82;100.00;69706.25;5071159;28;20037;-61
2024/02/16 09:26:05;;;;;;;8.75;4.10;;;;;;;11.81;100.00;69710.91;5072620;28;20044;-61
2024/02/16 09:28:33;;;;;;;9.07;4.07;;;;;;;11.84;100.00;69703.97;5072340;28;20119;-61
2024/02/16 09:31:01;;;;;;;9.18;4.15;;;;;;;11.87;100.00;69717.34;5069850;28;20434;-61
2024/02/16 09:33:29;;;;;;;10.05;4.30;;;;;;;11.89;100.00;69719.09;5070202;28;20051;-62
2024/02/16 09:35:59;;;;;;;10.63;4.13;;;;;;;11.92;100.00;69717.38;5069862;28;20048;-61
2024/02/16 09:38:27;;;;;;;9.10;4.10;;;;;;;11.95;100.00;69723.53;5069457;28;20500;-61
2024/02/16 09:40:55;;;;;;;9.02;4.13;;;;;;;11.97;100.00;69729.06;5068727;28;20554;-62
2024/02/16 09:43:28;;;;;;;9.48;4.15;;;;;;;12.05;100.00;69737.22;5070762;28;20131;-62
2024/02/16 09:45:57;;;;;;;10.18;4.30;;;;;;;12.05;100.00;69734.63;5069499;28;20044;-62
2024/02/16 09:48:27;;;;;;;8.88;3.83;;;;;;;12.07;100.00;69739.56;5069301;28;20044;-61
2024/02/16 09:50:58;;;;;;;10.32;3.92;;;;;;;12.14;100.00;69745.72;5071314;28;20128;-62
2024/02/16 09:53:30;;;;;;;9.27;4.30;;;;;;;12.15;100.00;69749.50;5071905;28;20102;-62
2024/02/16 09:55:58;;;;;;;10.82;4.55;;;;;;;12.18;100.00;69752.41;5067641;28;20757;-61
2024/02/16 09:58:26;;;;;;;11.38;4.60;;;;;;;12.19;100.00;69748.38;5067825;28;20802;-61
2024/02/16 10:00:56;;;;;;;9.02;4.40;;;;;;;12.26;100.00;69756.53;5069851;28;20492;-61
2024/02/16 10:03:26;;;;;;;8.77;4.43;;;;;;;12.29;100.00;69762.66;5071135;28;20132;-62
2024/02/16 10:06:06;;;;;;;10.65;4.35;;;;;;;12.31;100.00;69762.38;5069634;28;20487;-61
2024/02/16 10:08:47;;;;;;;12.52;5.07;;;;;;;12.37;100.00;69774.03;5068929;28;20116;-61
2024/02/16 10:11:16;;;;;;;8.60;4.25;;;;;;;12.33;100.00;69772.56;5071676;28;20139;-61
2024/02/16 10:13:44;;;;;;;9.50;4.22;;;;;;;12.38;100.00;69772.00;5073680;28;20047;-61
2024/02/16 10:16:13;;;;;;;10.85;4.47;;;;;;;12.43;100.00;69778.44;5074755;28;20086;-61
2024/02/16 10:18:42;;;;;;;9.88;4.40;;;;;;;12.44;100.00;69776.41;5075518;28;20136;-61
2024/02/16 10:21:10;;;;;;;9.68;4.40;;;;;;;12.49;100.00;69784.88;5075321;28;20102;-62
2024/02/16 10:23:40;;;;;;;10.25;4.50;;;;;;;12.49;100.00;69787.50;5075756;28;20048;-61
2024/02/16 10:26:11;;;;;;;10.63;4.32;;;;;;;12.52;100.00;69785.75;5073725;28;20065;-63
2024/02/16 10:28:43;;;;;;;10.63;5.60;;;;;;;12.52;100.00;69788.94;5073212;28;20400;-61
2024/02/16 10:31:11;;;;;;;10.68;5.20;;;;;;;12.57;100.00;69793.63;5074290;28;20048;-61
2024/02/16 10:33:42;;;;;;;10.57;5.00;;;;;;;12.57;100.00;69796.84;5075571;28;20400;-63
2024/02/16 10:36:11;;;;;;;8.40;4.22;;;;;;;12.59;100.00;69793.94;5072938;28;20613;-62
2024/02/16 10:38:46;;;;;;;9.40;4.63;;;;;;;12.56;100.00;69793.06;5072007;28;20044;-61
2024/02/16 10:41:17;;;;;;;11.95;4.95;;;;;;;12.59;100.00;69796.56;5071428;28;20074;-61
2024/02/16 10:43:48;;;;;;;9.38;4.55;;;;;;;12.57;100.00;69794.22;5072548;28;20391;-49
2024/02/16 10:46:17;;;;;;;10.05;4.80;;;;;;;12.56;100.00;69792.47;5075394;28;20120;-49
2024/02/16 10:48:45;;;;;;;10.75;4.63;;;;;;;12.62;100.00;69796.84;5075209;28;20102;-49
2024/02/16 10:51:16;;;;;;;11.43;5.45;;;;;;;12.59;100.00;69795.97;5073905;28;20052;-50
2024/02/16 10:53:48;;;;;;;9.38;5.25;;;;;;;12.54;100.00;69788.09;5075270;28;20060;-51
2024/02/16 10:56:16;;;;;;;10.45;4.68;;;;;;;12.57;100.00;69789.00;5075086;28;20079;-51
2024/02/16 10:58:48;;;;;;;9.35;4.88;;;;;;;12.55;100.00;69786.06;5072792;28;20056;-50
2024/02/16 11:01:16;;;;;;;;;;;;;;;12.56;100.00;69800.91;5072505;28;20036;-51
2024/02/16 11:03:47;;;;;;;9.85;5.10;;;;;;;12.53;100.00;69792.16;5072213;28;19932;-50
2024/02/16 11:06:19;;;;;;;11.20;5.95;;;;;;;12.43;100.00;69775.81;5071615;28;20453;-50
2024/02/16 11:08:52;;;;;;;11.77;5.70;;;;;;;12.40;100.00;69771.72;5071795;28;20557;-53
2024/02/16 11:11:24;;;;;;;9.98;5.95;;;;;;;12.39;100.00;69771.13;5070901;28;20040;-52
2024/02/16 11:13:55;;;;;;;12.27;6.45;;;;;;;12.33;100.00;69764.13;5073167;28;20044;-51
2024/02/16 11:16:24;;;;;;;12.20;6.07;;;;;;;12.27;100.00;69757.72;5071919;28;20049;-53
2024/02/16 11:18:54;;;;;;;12.15;5.93;;;;;;;12.26;100.00;69759.16;5071359;28;20048;-52
2024/02/16 11:21:22;;;;;;;12.13;6.32;;;;;;;12.23;100.00;69758.28;5073063;28;20040;-54
2024/02/16 11:23:52;;;;;;;12.25;6.45;;;;;;;12.21;100.00;69750.13;5070937;28;20047;-51
2024/02/16 11:26:24;;;;;;;13.48;6.18;;;;;;;12.18;100.00;69752.41;5070216;28;20045;-52
2024/02/16 11:28:53;;;;;;;11.23;6.68;;;;;;;12.14;100.00;69742.53;5070795;28;20053;-51
2024/02/16 11:31:22;;;;;;;12.95;6.55;;;;;;;12.10;100.00;69740.47;5071270;28;20045;-53
2024/02/16 11:33:50;;;;;;;11.35;6.47;;;;;;;12.05;100.00;69732.00;5071474;28;20071;-53
2024/02/16 11:36:19;;;;;;;14.48;6.63;;;;;;;12.01;100.00;69730.50;5070872;28;20046;-54
2024/02/16 11:38:47;;;;;;;11.90;6.85;;;;;;;11.99;100.00;69731.38;5071079;28;20048;-54